Map

Track Data

SID SEASON NUMBER BASIN SUBBASIN NAME ISO_TIME NATURE LAT LON WMO_WIND WMO_PRES WMO_AGENCY TRACK_TYPE DIST2LAND LANDFALL IFLAG USA_AGENCY USA_ATCF_ID USA_LAT USA_LON USA_RECORD USA_STATUS USA_WIND USA_PRES USA_SSHS USA_R34_NE USA_R34_SE USA_R34_SW USA_R34_NW USA_R50_NE USA_R50_SE USA_R50_SW USA_R50_NW USA_R64_NE USA_R64_SE USA_R64_SW USA_R64_NW USA_POCI USA_ROCI USA_RMW USA_EYE TOKYO_LAT TOKYO_LON TOKYO_GRADE TOKYO_WIND TOKYO_PRES TOKYO_R50_DIR TOKYO_R50_LONG TOKYO_R50_SHORT TOKYO_R30_DIR TOKYO_R30_LONG TOKYO_R30_SHORT TOKYO_LAND CMA_LAT CMA_LON CMA_CAT CMA_WIND CMA_PRES HKO_LAT HKO_LON HKO_CAT HKO_WIND HKO_PRES NEWDELHI_LAT NEWDELHI_LON NEWDELHI_GRADE NEWDELHI_WIND NEWDELHI_PRES NEWDELHI_CI NEWDELHI_DP NEWDELHI_POCI REUNION_LAT REUNION_LON REUNION_TYPE REUNION_WIND REUNION_PRES REUNION_TNUM REUNION_CI REUNION_RMW REUNION_R34_NE REUNION_R34_SE REUNION_R34_SW REUNION_R34_NW REUNION_R50_NE REUNION_R50_SE REUNION_R50_SW REUNION_R50_NW REUNION_R64_NE REUNION_R64_SE REUNION_R64_SW REUNION_R64_NW BOM_LAT BOM_LON BOM_TYPE BOM_WIND BOM_PRES BOM_TNUM BOM_CI BOM_RMW BOM_R34_NE BOM_R34_SE BOM_R34_SW BOM_R34_NW BOM_R50_NE BOM_R50_SE BOM_R50_SW BOM_R50_NW BOM_R64_NE BOM_R64_SE BOM_R64_SW BOM_R64_NW BOM_ROCI BOM_POCI BOM_EYE BOM_POS_METHOD BOM_PRES_METHOD NADI_LAT NADI_LON NADI_CAT NADI_WIND NADI_PRES WELLINGTON_LAT WELLINGTON_LON WELLINGTON_WIND WELLINGTON_PRES DS824_LAT DS824_LON DS824_STAGE DS824_WIND DS824_PRES TD9636_LAT TD9636_LON TD9636_STAGE TD9636_WIND TD9636_PRES TD9635_LAT TD9635_LON TD9635_WIND TD9635_PRES TD9635_ROCI NEUMANN_LAT NEUMANN_LON NEUMANN_CLASS NEUMANN_WIND NEUMANN_PRES MLC_LAT MLC_LON MLC_CLASS MLC_WIND MLC_PRES USA_GUST BOM_GUST BOM_GUST_PER REUNION_GUST REUNION_GUST_PER USA_SEAHGT USA_SEARAD_NE USA_SEARAD_SE USA_SEARAD_SW USA_SEARAD_NW STORM_SPEED STORM_DIR
1989227N13261 1989 79 EP MM ISMAEL 1989-08-14 12:00:00 TS 12.5000 -98.9000 20 1012 hurdat_epa main 409 402 O_________O___ hurdat_epa EP121989 12.5000 -98.9000 TD 20 1012 -1 12.5000 -98.9000 1 20 4 314
1989227N13261 1989 79 EP MM ISMAEL 1989-08-14 15:00:00 TS 12.6398 -99.0531 main 405 388 P_________P___ EP121989 12.6550 -99.0375 TD 22 1011 -1 12.6095 -99.0843 1 21 4 311
1989227N13261 1989 79 EP MM ISMAEL 1989-08-14 18:00:00 TS 12.7705 -99.2195 25 1011 hurdat_epa main 388 382 O_________P___ hurdat_epa EP121989 12.8000 -99.2000 TD 25 1011 -1 12.7352 -99.2650 1 22 4 308
1989227N13261 1989 79 EP MM ISMAEL 1989-08-14 21:00:00 TS 12.9174 -99.4123 main 387 374 P_________P___ EP121989 12.9350 -99.4000 TD 25 1010 -1 12.8932 -99.4381 1 23 5 312
1989227N13261 1989 79 EP MM ISMAEL 1989-08-15 00:00:00 TS 13.1000 -99.6000 25 1010 hurdat_epa main 374 356 O_________O___ hurdat_epa EP121989 13.1000 -99.6000 TD 25 1010 -1 13.1000 -99.6000 1 25 5 321
1989227N13261 1989 79 EP MM ISMAEL 1989-08-15 03:00:00 TS 13.3331 -99.7554 main 359 332 P_________P___ EP121989 13.3200 -99.7576 TD 27 1009 -1 13.3649 -99.7491 1 26 6 331
1989227N13261 1989 79 EP MM ISMAEL 1989-08-15 06:00:00 TS 13.6175 -99.8981 30 1008 hurdat_epa main 332 307 O_________P___ hurdat_epa EP121989 13.6000 -99.9000 TD 30 1008 -1 13.6699 -99.8926 1 27 7 335
1989227N13261 1989 79 EP MM ISMAEL 1989-08-15 09:00:00 TS 13.9543 -100.047 main 298 273 P_________P___ EP121989 13.9425 -100.050 TD 30 1007 -1 13.9899 -100.040 1 28 7 337
1989227N13261 1989 79 EP MM ISMAEL 1989-08-15 12:00:00 TS 14.3000 -100.200 30 1006 hurdat_epa main 273 243 O_________O___ hurdat_epa EP121989 14.3000 -100.200 TD 30 1006 -1 14.3000 -100.200 1 30 7 336
1989227N13261 1989 79 EP MM ISMAEL 1989-08-15 15:00:00 TS 14.6130 -100.344 main 243 218 P_________P___ EP121989 14.6225 -100.335 TD 32 1005 -1 14.5846 -100.369 1 32 7 333
1989227N13261 1989 79 EP MM ISMAEL 1989-08-15 18:00:00 TS 14.8881 -100.514 35 1004 hurdat_epa main 218 208 O_________P___ hurdat_epa EP121989 14.9000 -100.500 TS 35 1004 0 14.8523 -100.555 1 35 6 323
1989227N13261 1989 79 EP MM ISMAEL 1989-08-15 21:00:00 TS 15.1153 -100.736 main 208 202 P_________P___ EP121989 15.1225 -100.728 TS 37 1002 0 15.0939 -100.763 1 37 6 311
1989227N13261 1989 79 EP MM ISMAEL 1989-08-16 00:00:00 TS 15.3000 -101.000 40 1000 hurdat_epa main 208 197 O_________O___ hurdat_epa EP121989 15.3000 -101.000 TS 40 1000 0 15.3000 -101.000 2 40 6 303
1989227N13261 1989 79 EP MM ISMAEL 1989-08-16 03:00:00 TS 15.4660 -101.286 main 197 194 P_________P___ EP121989 15.4650 -101.293 TS 45 997 0 15.4691 -101.267 2 46 6 298
1989227N13261 1989 79 EP MM ISMAEL 1989-08-16 06:00:00 TS 15.6006 -101.591 50 995 hurdat_epa main 197 190 O_________P___ hurdat_epa EP121989 15.6000 -101.600 TS 50 995 0 15.6025 -101.563 2 52 6 293
1989227N13261 1989 79 EP MM ISMAEL 1989-08-16 09:00:00 TS 15.7080 -101.892 main 198 193 P_________P___ EP121989 15.7074 -101.893 TS 57 992 0 15.7096 -101.877 2 58 6 289
1989227N13261 1989 79 EP MM ISMAEL 1989-08-16 12:00:00 TS 15.8000 -102.200 65 990 hurdat_epa main 204 204 O_________O___ hurdat_epa EP121989 15.8000 -102.200 HU 65 990 1 15.8000 -102.200 3 65 6 288
1989227N13261 1989 79 EP MM ISMAEL 1989-08-16 15:00:00 TS 15.9018 -102.506 main 216 216 P_________P___ EP121989 15.9075 -102.550 HU 70 987 1 15.8849 -102.490 3 68 6 288
1989227N13261 1989 79 EP MM ISMAEL 1989-08-16 18:00:00 TS 15.9892 -102.823 75 985 hurdat_epa main 219 219 O_________P___ hurdat_epa EP121989 16.0000 -102.900 HU 75 985 1 15.9568 -102.790 3 72 6 283
1989227N13261 1989 79 EP MM ISMAEL 1989-08-16 21:00:00 TS 16.0437 -103.140 main 229 221 P_________P___ EP121989 16.0498 -103.185 HU 77 981 1 16.0254 -103.121 3 76 7 280
1989227N13261 1989 79 EP MM ISMAEL 1989-08-17 00:00:00 TS 16.1000 -103.500 80 978 hurdat_epa main 232 228 O_________O___ hurdat_epa EP121989 16.1000 -103.500 HU 80 978 1 16.1000 -103.500 4 80 8 281
1989227N13261 1989 79 EP MM ISMAEL 1989-08-17 03:00:00 TS 16.1925 -103.923 main 235 235 P_________P___ EP121989 16.1924 -103.913 HU 85 974 2 16.1928 -103.938 4 82 9 283
1989227N13261 1989 79 EP MM ISMAEL 1989-08-17 06:00:00 TS 16.2981 -104.406 90 970 hurdat_epa main 243 243 O_________P___ hurdat_epa EP121989 16.3000 -104.400 HU 90 970 2 16.2923 -104.425 4 85 10 282
1989227N13261 1989 79 EP MM ISMAEL 1989-08-17 09:00:00 TS 16.3989 -104.933 main 259 259 P_________P___ EP121989 16.3999 -104.928 HU 90 969 2 16.3957 -104.950 4 87 11 281
1989227N13261 1989 79 EP MM ISMAEL 1989-08-17 12:00:00 TS 16.5000 -105.500 90 968 hurdat_epa main 292 292 O_________O___ hurdat_epa EP121989 16.5000 -105.500 HU 90 968 2 16.5000 -105.500 4 90 11 280
1989227N13261 1989 79 EP MM ISMAEL 1989-08-17 15:00:00 TS 16.5999 -106.088 main 321 321 P_________P___ EP121989 16.6000 -106.100 HU 87 970 2 16.5998 -106.054 4 87 12 280
1989227N13261 1989 79 EP MM ISMAEL 1989-08-17 18:00:00 TS 16.6999 -106.682 85 972 hurdat_epa main 344 344 O_________P___ hurdat_epa EP121989 16.7000 -106.700 HU 85 972 2 16.6997 -106.628 4 85 11 280
1989227N13261 1989 79 EP MM ISMAEL 1989-08-17 21:00:00 TS 16.8054 -107.246 main 369 369 P_________P___ EP121989 16.8073 -107.258 HU 82 975 1 16.7997 -107.213 4 82 11 281
1989227N13261 1989 79 EP MM ISMAEL 1989-08-18 00:00:00 TS 16.9000 -107.800 80 978 hurdat_epa main 407 407 O_________O___ hurdat_epa EP121989 16.9000 -107.800 HU 80 978 1 16.9000 -107.800 4 80 11 278
1989227N13261 1989 79 EP MM ISMAEL 1989-08-18 03:00:00 TS 16.9545 -108.346 main 437 437 P_________P___ EP121989 16.9423 -108.343 HU 80 978 1 16.9910 -108.355 4 81 11 277
1989227N13261 1989 79 EP MM ISMAEL 1989-08-18 06:00:00 TS 17.0209 -108.903 80 978 hurdat_epa main 485 485 O_________P___ hurdat_epa EP121989 17.0000 -108.900 HU 80 978 1 17.0837 -108.913 4 82 11 280
1989227N13261 1989 79 EP MM ISMAEL 1989-08-18 09:00:00 TS 17.1472 -109.481 main 530 523 P_________P___ EP121989 17.1347 -109.478 HU 82 977 1 17.1846 -109.490 4 83 12 284
1989227N13261 1989 79 EP MM ISMAEL 1989-08-18 12:00:00 TS 17.3000 -110.100 85 976 hurdat_epa main 571 571 O_________O___ hurdat_epa EP121989 17.3000 -110.100 HU 85 976 2 17.3000 -110.100 4 85 13 284
1989227N13261 1989 79 EP MM ISMAEL 1989-08-18 15:00:00 TS 17.4473 -110.781 main 620 608 P_________P___ EP121989 17.4499 -110.785 HU 87 973 2 17.4396 -110.768 4 86 14 283
1989227N13261 1989 79 EP MM ISMAEL 1989-08-18 18:00:00 TS 17.5981 -111.492 90 970 hurdat_epa main 613 611 O_________P___ hurdat_epa EP121989 17.6000 -111.500 HU 90 970 2 17.5924 -111.470 4 87 14 283
1989227N13261 1989 79 EP MM ISMAEL 1989-08-18 21:00:00 TS 17.7496 -112.202 main 625 614 P_________P___ EP121989 17.7498 -112.208 HU 90 969 2 17.7489 -112.187 4 88 14 283
1989227N13261 1989 79 EP MM ISMAEL 1989-08-19 00:00:00 TS 17.9000 -112.900 90 968 hurdat_epa main 635 635 O_________O___ hurdat_epa EP121989 17.9000 -112.900 HU 90 968 2 17.9000 -112.900 4 90 13 283
1989227N13261 1989 79 EP MM ISMAEL 1989-08-19 03:00:00 TS 18.0508 -113.561 main 654 654 P_________P___ EP121989 18.0571 -113.550 HU 92 965 2 18.0316 -113.595 4 92 13 283
1989227N13261 1989 79 EP MM ISMAEL 1989-08-19 06:00:00 TS 18.1892 -114.220 95 962 hurdat_epa main 683 683 O_________P___ hurdat_epa EP121989 18.2000 -114.200 HU 95 962 2 18.1568 -114.280 4 95 13 281
1989227N13261 1989 79 EP MM ISMAEL 1989-08-19 09:00:00 TS 18.2946 -114.919 main 724 724 P_________P___ EP121989 18.3000 -114.908 HU 97 960 3 18.2786 -114.951 4 97 13 279
1989227N13261 1989 79 EP MM ISMAEL 1989-08-19 12:00:00 TS 18.4000 -115.600 100 958 hurdat_epa main 769 769 O_________O___ hurdat_epa EP121989 18.4000 -115.600 HU 100 958 3 18.4000 -115.600 4 100 13 282
1989227N13261 1989 79 EP MM ISMAEL 1989-08-19 15:00:00 TS 18.5473 -116.218 main 810 807 P_________P___ EP121989 18.5497 -116.215 HU 102 956 3 18.5404 -116.225 4 100 12 284
1989227N13261 1989 79 EP MM ISMAEL 1989-08-19 18:00:00 TS 18.6947 -116.807 105 955 hurdat_epa main 827 827 O_________P___ hurdat_epa EP121989 18.7000 -116.800 HU 105 955 3 18.6789 -116.830 4 100 12 283
1989227N13261 1989 79 EP MM ISMAEL 1989-08-19 21:00:00 TS 18.8119 -117.405 main 856 856 P_________P___ EP121989 18.8148 -117.400 HU 102 955 3 18.8030 -117.419 4 100 11 280
1989227N13261 1989 79 EP MM ISMAEL 1989-08-20 00:00:00 TS 18.9000 -118.000 100 956 hurdat_epa main 889 889 O_________O___ hurdat_epa EP121989 18.9000 -118.000 HU 100 956 3 18.9000 -118.000 4 100 11 278
1989227N13261 1989 79 EP MM ISMAEL 1989-08-20 03:00:00 TS 18.9660 -118.603 main 924 924 P_________P___ EP121989 18.9649 -118.608 HU 95 960 2 18.9695 -118.590 4 95 11 275
1989227N13261 1989 79 EP MM ISMAEL 1989-08-20 06:00:00 TS 19.0024 -119.193 90 965 hurdat_epa main 970 970 O_________P___ hurdat_epa EP121989 19.0000 -119.200 HU 90 965 2 19.0094 -119.173 4 90 11 273
1989227N13261 1989 79 EP MM ISMAEL 1989-08-20 09:00:00 TS 19.0160 -119.760 main 1016 1016 P_________P___ EP121989 19.0148 -119.765 HU 85 970 2 19.0196 -119.743 4 85 10 270
1989227N13261 1989 79 EP MM ISMAEL 1989-08-20 12:00:00 TS 19.0000 -120.300 80 975 hurdat_epa main 1057 1057 O_________O___ hurdat_epa EP121989 19.0000 -120.300 HU 80 975 1 19.0000 -120.300 4 80 10 267
1989227N13261 1989 79 EP MM ISMAEL 1989-08-20 15:00:00 TS 18.9598 -120.812 main 1098 1098 P_________P___ EP121989 18.9647 -120.800 HU 75 980 1 18.9451 -120.848 4 77 10 264
1989227N13261 1989 79 EP MM ISMAEL 1989-08-20 18:00:00 TS 18.8911 -121.320 70 985 hurdat_epa main 1146 1146 O_________P___ hurdat_epa EP121989 18.9000 -121.300 HU 70 985 1 18.8644 -121.381 4 75 10 260
1989227N13261 1989 79 EP MM ISMAEL 1989-08-20 21:00:00 TS 18.7885 -121.868 main 1204 1204 P_________P___ EP121989 18.7925 -121.858 HU 70 986 1 18.7765 -121.898 4 72 10 259
1989227N13261 1989 79 EP MM ISMAEL 1989-08-21 00:00:00 TS 18.7000 -122.400 70 987 hurdat_epa main 1253 1253 O_________O___ hurdat_epa EP121989 18.7000 -122.400 HU 70 987 1 18.7000 -122.400 4 70 10 264
1989227N13261 1989 79 EP MM ISMAEL 1989-08-21 03:00:00 TS 18.6872 -122.865 main 1287 1287 P_________P___ EP121989 18.6922 -122.857 HU 72 985 1 18.6723 -122.889 4 73 9 269
1989227N13261 1989 79 EP MM ISMAEL 1989-08-21 06:00:00 TS 18.6892 -123.316 75 984 hurdat_epa main 1314 1314 O_________P___ hurdat_epa EP121989 18.7000 -123.300 HU 75 984 1 18.6568 -123.364 4 77 9 268
1989227N13261 1989 79 EP MM ISMAEL 1989-08-21 09:00:00 TS 18.6582 -123.808 main 1348 1348 P_________P___ EP121989 18.6650 -123.800 HU 80 979 1 18.6379 -123.833 4 81 9 265
1989227N13261 1989 79 EP MM ISMAEL 1989-08-21 12:00:00 TS 18.6000 -124.300 85 975 hurdat_epa main 1390 1390 O_________O___ hurdat_epa EP121989 18.6000 -124.300 HU 85 975 2 18.6000 -124.300 4 85 9 260
1989227N13261 1989 79 EP MM ISMAEL 1989-08-21 15:00:00 TS 18.5067 -124.757 main 1434 1434 P_________P___ EP121989 18.5073 -124.750 HU 87 970 2 18.5050 -124.780 4 87 9 257
1989227N13261 1989 79 EP MM ISMAEL 1989-08-21 18:00:00 TS 18.3980 -125.215 90 965 hurdat_epa main 1471 1471 O_________P___ hurdat_epa EP121989 18.4000 -125.200 HU 90 965 2 18.3921 -125.258 4 90 9 256
1989227N13261 1989 79 EP MM ISMAEL 1989-08-21 21:00:00 TS 18.2845 -125.708 main 1515 1515 P_________P___ EP121989 18.2850 -125.700 HU 92 963 2 18.2832 -125.733 4 92 10 258
1989227N13261 1989 79 EP MM ISMAEL 1989-08-22 00:00:00 TS 18.2000 -126.200 95 962 hurdat_epa main 1560 1560 O_________O___ hurdat_epa EP121989 18.2000 -126.200 HU 95 962 2 18.2000 -126.200 4 95 9 263
1989227N13261 1989 79 EP MM ISMAEL 1989-08-22 03:00:00 TS 18.1793 -126.655 main 1598 1598 P_________P___ EP121989 18.1848 -126.657 HU 95 962 2 18.1626 -126.649 4 93 9 269
1989227N13261 1989 79 EP MM ISMAEL 1989-08-22 06:00:00 TS 18.1886 -127.098 95 963 hurdat_epa main 1629 1629 O_________P___ hurdat_epa EP121989 18.2000 -127.100 HU 95 963 2 18.1543 -127.092 4 92 8 270
1989227N13261 1989 79 EP MM ISMAEL 1989-08-22 09:00:00 TS 18.1865 -127.542 main 1660 1660 P_________P___ EP121989 18.1923 -127.543 HU 92 965 2 18.1688 -127.540 4 91 9 271
1989227N13261 1989 79 EP MM ISMAEL 1989-08-22 12:00:00 TS 18.2000 -128.000 90 968 hurdat_epa main 1700 1700 O_________O___ hurdat_epa EP121989 18.2000 -128.000 HU 90 968 2 18.2000 -128.000 4 90 9 273
1989227N13261 1989 79 EP MM ISMAEL 1989-08-22 15:00:00 TS 18.2406 -128.488 main 1740 1740 P_________P___ EP121989 18.2424 -128.492 HU 87 970 2 18.2352 -128.473 4 87 9 276
1989227N13261 1989 79 EP MM ISMAEL 1989-08-22 18:00:00 TS 18.2961 -128.991 85 972 hurdat_epa main 1773 1773 O_________P___ hurdat_epa EP121989 18.3000 -129.000 HU 85 972 2 18.2843 -128.962 4 85 10 276
1989227N13261 1989 79 EP MM ISMAEL 1989-08-22 21:00:00 TS 18.3477 -129.487 main 1815 1808 P_________P___ EP121989 18.3498 -129.493 HU 82 976 1 18.3413 -129.470 4 82 10 276
1989227N13261 1989 79 EP MM ISMAEL 1989-08-23 00:00:00 TS 18.4000 -130.000 80 980 hurdat_epa main 1850 1850 O_________O___ hurdat_epa EP121989 18.4000 -130.000 HU 80 980 1 18.4000 -130.000 4 80 10 276
1989227N13261 1989 79 EP MM ISMAEL 1989-08-23 03:00:00 TS 18.4519 -130.541 main 1886 1886 P_________P___ EP121989 18.4498 -130.535 HU 75 982 1 18.4580 -130.557 4 76 11 276
1989227N13261 1989 79 EP MM ISMAEL 1989-08-23 06:00:00 TS 18.5037 -131.109 70 985 hurdat_epa main 1937 1937 O_________P___ hurdat_epa EP121989 18.5000 -131.100 HU 70 985 1 18.5148 -131.135 4 72 11 276
1989227N13261 1989 79 EP MM ISMAEL 1989-08-23 09:00:00 TS 18.5591 -131.705 main 1983 1983 P_________P___ EP121989 18.5574 -131.700 HU 67 987 1 18.5642 -131.720 4 68 11 275
1989227N13261 1989 79 EP MM ISMAEL 1989-08-23 12:00:00 TS 18.6000 -132.300 65 990 hurdat_epa main 2036 2036 O_________O___ hurdat_epa EP121989 18.6000 -132.300 HU 65 990 1 18.6000 -132.300 4 65 11 273
1989227N13261 1989 79 EP MM ISMAEL 1989-08-23 15:00:00 TS 18.6079 -132.860 main 2089 2089 P_________P___ EP121989 18.6073 -132.858 HU 60 992 0 18.6099 -132.866 4 60 10 270
1989227N13261 1989 79 EP MM ISMAEL 1989-08-23 18:00:00 TS 18.6017 -133.406 55 994 hurdat_epa main 2134 2134 O_________P___ hurdat_epa EP121989 18.6000 -133.400 TS 55 994 0 18.6070 -133.423 4 55 10 270
1989227N13261 1989 79 EP MM ISMAEL 1989-08-23 21:00:00 TS 18.6001 -133.960 main 2187 2134 P_________P___ EP121989 18.5999 -133.958 TS 50 996 0 18.6006 -133.969 4 50 10 270
1989227N13261 1989 79 EP MM ISMAEL 1989-08-24 00:00:00 TS 18.6000 -134.500 45 998 hurdat_epa main 2134 2082 O_________O___ hurdat_epa EP121989 18.6000 -134.500 TS 45 998 0 18.6000 -134.500 2 45 10 270
1989227N13261 1989 79 EP MM ISMAEL 1989-08-24 03:00:00 TS 18.5965 -135.009 main 2082 2030 P_________P___ EP121989 18.5923 -135.008 TS 40 999 0 18.6091 -135.014 2 41 10 270
1989227N13261 1989 79 EP MM ISMAEL 1989-08-24 06:00:00 TS 18.6067 -135.504 35 1000 hurdat_epa main 2030 1977 O_________P___ hurdat_epa EP121989 18.6000 -135.500 TS 35 1000 0 18.6267 -135.515 2 37 9 273
1989227N13261 1989 79 EP MM ISMAEL 1989-08-24 09:00:00 TS 18.6420 -136.002 main 1977 1924 P_________P___ EP121989 18.6349 -136.000 TS 32 1002 -1 18.6560 -136.008 2 33 9 276
1989227N13261 1989 79 EP MM ISMAEL 1989-08-24 12:00:00 TS 18.7000 -136.500 30 1004 hurdat_epa main 1924 1870 O_________O___ hurdat_epa EP121989 18.7000 -136.500 TD 30 1004 -1 18.7000 -136.500 1 30 10 278
1989227N13261 1989 79 EP MM ISMAEL 1989-08-24 15:00:00 TS 18.7795 -137.000 main 1870 1817 P_________P___ EP121989 18.7999 -137.000 TD 30 1006 -1 18.7521 -137.000 1 28 10 280
1989227N13261 1989 79 EP MM ISMAEL 1989-08-24 18:00:00 TS 18.8675 -137.500 30 1008 hurdat_epa main 1817 1764 O_________P___ hurdat_epa EP121989 18.9000 -137.500 TD 30 1008 -1 18.8195 -137.500 1 27 10 279
1989227N13261 1989 79 EP MM ISMAEL 1989-08-24 21:00:00 TS 18.9289 -138.000 main 1764 1711 P_________P___ EP121989 18.9424 -138.000 TD 27 1009 -1 18.9021 -138.000 1 26 10 278
1989227N13261 1989 79 EP MM ISMAEL 1989-08-25 00:00:00 TS 19.0000 -138.500 25 1010 hurdat_epa main 1711 1658 O_________O___ hurdat_epa EP121989 19.0000 -138.500 TD 25 1010 -1 19.0000 -138.500 1 25 10 282
1989227N13261 1989 79 EP MM ISMAEL 1989-08-25 03:00:00 TS 19.1324 -139.000 main 1658 1604 P_________P___ EP121989 19.1424 -139.000 TD 25 1010 -1 19.1125 -139.000 1 23 10 286
1989227N13261 1989 79 EP MM ISMAEL 1989-08-25 06:00:00 TS 19.2787 -139.500 25 1011 hurdat_epa main 1604 1551 O_________P___ hurdat_epa EP121989 19.3000 -139.500 TD 25 1011 -1 19.2361 -139.499 1 22 10 286
1989227N13261 1989 79 EP MM ISMAEL 1989-08-25 09:00:00 TS 19.3991 -140.000 main 1551 1498 P_________P___ EP121989 19.4445 -139.962 TD 22 1011 -1 19.3666 -139.999 1 21 10 283
1989227N13261 1989 79 EP CP ISMAEL 1989-08-25 12:00:00 TS 19.5000 -140.500 20 1012 hurdat_epa main 1498 1425 O_________O___ hurdat_epa EP121989 19.5000 -140.500 TD 20 1012 -1 19.5000 -140.500 1 20 12 268
1989227N13261 1989 79 EP CP ISMAEL 1989-08-25 15:00:00 NR 19.3515 -141.251 main 1415 1343 P_____________ EP121989 19.3985 -141.201 TD 20 1012 -1 1 14 258
1989227N13261 1989 79 EP CP ISMAEL 1989-08-25 18:00:00 NR 19.2000 -142.000 20 1012 cphc main 1343 O_____________ cphc 19.2000 -142.000 20 1012 1 14 258

About IBTrACS Database

This database is a web-friendly format of International Best Track Archive for Climate Stewardship (IBTrACS), a global best track data archive curated by NOAA dating back to 1842.

Updated: 2021-12-01